createdAt,value
2018-06-15T00:00:24.177Z,100857.67
2018-06-15T00:02:56.847Z,100859.08
2018-06-15T00:05:23.878Z,100854.39
2018-06-15T00:07:50.942Z,100871.46
2018-06-15T00:10:18.845Z,100856.80
2018-06-15T00:12:45.893Z,100854.16
2018-06-15T00:15:12.921Z,100854.94
2018-06-15T00:17:39.962Z,100852.89
2018-06-15T00:20:07.057Z,100856.20
2018-06-15T00:22:34.106Z,100854.53
2018-06-15T00:25:01.219Z,100850.82
2018-06-15T00:27:28.346Z,100852.55
2018-06-15T00:29:55.349Z,100859.41
2018-06-15T00:32:22.371Z,100859.15
2018-06-15T00:34:49.741Z,100863.02
2018-06-15T00:37:16.941Z,100862.06
2018-06-15T00:39:43.977Z,100859.27
2018-06-15T00:42:11.007Z,100867.45
2018-06-15T00:44:38.044Z,100866.39
2018-06-15T00:47:05.310Z,100866.56
2018-06-15T00:49:32.361Z,100863.12
2018-06-15T00:51:59.407Z,100863.86
2018-06-15T00:54:26.432Z,100861.50
2018-06-15T00:57:05.051Z,100860.23
2018-06-15T00:59:32.166Z,100866.10
2018-06-15T01:01:59.351Z,100867.05
2018-06-15T01:04:26.398Z,100866.56
2018-06-15T01:06:53.426Z,100865.88
2018-06-15T01:09:20.531Z,100865.13
2018-06-15T01:11:47.579Z,100870.66
2018-06-15T01:14:14.610Z,100871.18
2018-06-15T01:16:42.338Z,100867.53
2018-06-15T01:19:09.386Z,100867.13
2018-06-15T01:21:36.429Z,100873.16
2018-06-15T01:24:03.470Z,100871.30
2018-06-15T01:26:30.545Z,100870.09
2018-06-15T01:28:57.576Z,100863.94
2018-06-15T01:31:24.592Z,100862.88
2018-06-15T01:33:51.669Z,100868.25
2018-06-15T01:36:18.778Z,100866.12
2018-06-15T01:38:45.834Z,100867.79
2018-06-15T01:41:12.953Z,100873.36
2018-06-15T01:43:40.090Z,100870.73
2018-06-15T01:46:07.136Z,100868.81
2018-06-15T01:48:34.181Z,100873.97
2018-06-15T01:51:01.216Z,100872.96
2018-06-15T01:53:28.723Z,100870.23
2018-06-15T01:55:55.810Z,100872.41
2018-06-15T01:58:23.372Z,100877.00
2018-06-15T02:00:50.501Z,100881.25
2018-06-15T02:03:17.594Z,100878.69
2018-06-15T02:05:44.756Z,100872.81
2018-06-15T02:08:11.839Z,100873.52
2018-06-15T02:10:38.877Z,100870.34
2018-06-15T02:13:05.998Z,100871.25
2018-06-15T02:15:33.039Z,100877.56
2018-06-15T02:18:00.086Z,100874.13
2018-06-15T02:20:27.110Z,100873.27
2018-06-15T02:22:54.162Z,100884.69
2018-06-15T02:25:21.205Z,100883.47
2018-06-15T02:27:48.337Z,100886.11
2018-06-15T02:30:15.374Z,100888.33
2018-06-15T02:32:42.492Z,100886.60
2018-06-15T02:35:09.595Z,100888.67
2018-06-15T02:37:36.619Z,100883.66
2018-06-15T02:40:03.646Z,100888.80
2018-06-15T02:42:30.676Z,100887.14
2018-06-15T02:44:57.723Z,100889.88
2018-06-15T02:47:24.759Z,100899.77
2018-06-15T02:49:51.805Z,100898.03
2018-06-15T02:52:18.830Z,100901.92
2018-06-15T02:54:45.853Z,100900.56
2018-06-15T02:57:14.038Z,100898.19
2018-06-15T02:59:41.073Z,100901.34
2018-06-15T03:02:08.241Z,100903.47
2018-06-15T03:04:35.303Z,100909.39
2018-06-15T03:07:02.333Z,100909.08
2018-06-15T03:09:31.010Z,100910.58
2018-06-15T03:11:58.124Z,100916.98
2018-06-15T03:14:25.157Z,100913.88
2018-06-15T03:16:52.190Z,100912.70
2018-06-15T03:19:19.360Z,100920.67
2018-06-15T03:21:46.470Z,100918.72
2018-06-15T03:24:13.570Z,100924.25
2018-06-15T03:26:40.593Z,100925.41
2018-06-15T03:29:07.626Z,100928.96
2018-06-15T03:31:34.637Z,100929.04
2018-06-15T03:34:01.678Z,100929.50
2018-06-15T03:36:28.841Z,100931.30
2018-06-15T03:38:55.865Z,100935.47
2018-06-15T03:41:22.878Z,100934.95
2018-06-15T03:43:49.907Z,100934.02
2018-06-15T03:46:16.993Z,100940.06
2018-06-15T03:48:44.018Z,100938.50
2018-06-15T03:51:11.029Z,100944.27
2018-06-15T03:53:38.121Z,100948.12
2018-06-15T03:56:05.154Z,100956.66
2018-06-15T03:58:32.219Z,100960.52
2018-06-15T04:00:59.291Z,100963.36
2018-06-15T04:03:26.330Z,100960.84
2018-06-15T04:05:53.611Z,100963.67
2018-06-15T04:08:20.665Z,100964.16
2018-06-15T04:10:47.685Z,100966.91
2018-06-15T04:13:14.742Z,100967.22
2018-06-15T04:15:41.758Z,100965.58
2018-06-15T04:18:08.792Z,100971.72
2018-06-15T04:20:37.220Z,100971.72
2018-06-15T04:23:04.279Z,100971.88
2018-06-15T04:25:31.606Z,100973.78
2018-06-15T04:27:58.621Z,100977.56
2018-06-15T04:30:25.624Z,100975.83
2018-06-15T04:32:52.710Z,100981.37
2018-06-15T04:35:19.912Z,100982.14
2018-06-15T04:37:47.286Z,100982.37
2018-06-15T04:40:14.301Z,100983.03
2018-06-15T04:42:41.313Z,100982.94
2018-06-15T04:45:08.595Z,100985.80
2018-06-15T04:47:35.694Z,100979.47
2018-06-15T04:50:02.895Z,100985.80
2018-06-15T04:52:29.918Z,100988.96
2018-06-15T04:54:56.960Z,100988.85
2018-06-15T04:57:23.980Z,100989.31
2018-06-15T04:59:50.995Z,100993.66
2018-06-15T05:02:18.047Z,100999.28
2018-06-15T05:04:45.633Z,100996.53
2018-06-15T05:07:12.686Z,100999.59
2018-06-15T05:09:39.798Z,101004.86
2018-06-15T05:12:06.806Z,101003.28
2018-06-15T05:14:33.842Z,101006.67
2018-06-15T05:17:00.861Z,101003.59
2018-06-15T05:19:27.888Z,101005.88
2018-06-15T05:21:54.998Z,101010.69
2018-06-15T05:24:22.039Z,101010.53
2018-06-15T05:26:49.146Z,101010.34
2018-06-15T05:29:16.179Z,101004.73
2018-06-15T05:31:43.177Z,101005.59
2018-06-15T05:34:10.192Z,101015.37
2018-06-15T05:36:37.222Z,101020.08
2018-06-15T05:39:08.980Z,101022.05
2018-06-15T05:41:36.038Z,101030.66
2018-06-15T05:44:03.375Z,101028.58
2018-06-15T05:46:30.478Z,101033.29
2018-06-15T05:48:57.517Z,101041.74
2018-06-15T05:51:24.565Z,101042.59
2018-06-15T05:53:51.594Z,101046.39
2018-06-15T05:56:25.501Z,101048.84
2018-06-15T05:58:52.517Z,101050.59
2018-06-15T06:01:19.598Z,101050.03
2018-06-15T06:03:46.619Z,101044.34
2018-06-15T06:06:13.706Z,101038.25
2018-06-15T06:08:40.733Z,101046.36
2018-06-15T06:11:07.757Z,101052.69
2018-06-15T06:13:34.797Z,101048.55
2018-06-15T06:16:01.905Z,101053.75
2018-06-15T06:18:29.210Z,101036.78
2018-06-15T06:20:56.247Z,101046.02
2018-06-15T06:23:23.249Z,101050.28
2018-06-15T06:25:50.343Z,101047.95
2018-06-15T06:28:17.417Z,101054.77
2018-06-15T06:30:44.465Z,101057.84
2018-06-15T06:33:11.532Z,101060.23
2018-06-15T06:35:38.562Z,101067.99
2018-06-15T06:38:05.600Z,101075.73
2018-06-15T06:40:32.862Z,101073.69
2018-06-15T06:43:00.035Z,101080.13
2018-06-15T06:45:27.142Z,101077.14
2018-06-15T06:47:54.206Z,101079.74
2018-06-15T06:50:21.297Z,101087.77
2018-06-15T06:52:48.444Z,101081.64
2018-06-15T06:55:15.503Z,101074.10
2018-06-15T06:57:42.533Z,101082.52
2018-06-15T07:00:09.567Z,101084.47
2018-06-15T07:02:36.599Z,101084.92
2018-06-15T07:05:03.657Z,101087.00
2018-06-15T07:07:30.705Z,101087.00
2018-06-15T07:09:57.734Z,101092.13
2018-06-15T07:12:24.829Z,101088.98
2018-06-15T07:14:53.971Z,101089.17
2018-06-15T07:17:21.016Z,101092.48
2018-06-15T07:19:48.055Z,101088.49
2018-06-15T07:22:15.103Z,101088.80
2018-06-15T07:24:42.246Z,101095.67
2018-06-15T07:27:09.258Z,101097.13
2018-06-15T07:29:36.291Z,101094.66
2018-06-15T07:32:03.710Z,101099.38
2018-06-15T07:34:30.754Z,101087.88
2018-06-15T07:36:57.821Z,101089.38
2018-06-15T07:39:24.978Z,101096.20
2018-06-15T07:41:52.941Z,101089.38
2018-06-15T07:44:21.990Z,101096.42
2018-06-15T07:46:49.018Z,101100.61
2018-06-15T07:49:16.402Z,101105.44
2018-06-15T07:51:43.401Z,101098.92
2018-06-15T07:54:10.446Z,101101.84
2018-06-15T07:56:38.157Z,101102.75
2018-06-15T07:59:06.133Z,101099.24
2018-06-15T08:01:33.352Z,101104.05
2018-06-15T08:04:03.265Z,101100.14
2018-06-15T08:06:30.650Z,101102.41
2018-06-15T08:08:58.092Z,101105.95
2018-06-15T08:11:25.125Z,101108.31
2018-06-15T08:13:52.230Z,101101.42
2018-06-15T08:16:19.322Z,101105.20
2018-06-15T08:18:46.433Z,101108.09
2018-06-15T08:21:13.543Z,101111.47
2018-06-15T08:23:40.562Z,101113.39
2018-06-15T08:26:07.593Z,101119.27
2018-06-15T08:28:34.763Z,101118.35
2018-06-15T08:31:01.804Z,101122.07
2018-06-15T08:33:28.922Z,101126.91
2018-06-15T08:35:55.968Z,101133.90
2018-06-15T08:38:23.093Z,101132.25
2018-06-15T08:40:50.229Z,101128.59
2018-06-15T08:43:17.373Z,101134.09
2018-06-15T08:45:44.413Z,101127.91
2018-06-15T08:48:12.522Z,101129.71
2018-06-15T08:50:39.854Z,101130.08
2018-06-15T08:53:06.944Z,101128.21
2018-06-15T08:55:34.067Z,101129.42
2018-06-15T08:58:01.083Z,101127.25
2018-06-15T09:00:28.179Z,101127.77
2018-06-15T09:02:55.261Z,101127.01
2018-06-15T09:05:22.533Z,101124.26
2018-06-15T09:07:49.680Z,101129.69
2018-06-15T09:10:16.775Z,101136.89
2018-06-15T09:12:43.994Z,101137.49
2018-06-15T09:15:10.986Z,101136.03
2018-06-15T09:17:37.981Z,101136.97
2018-06-15T09:20:05.100Z,101136.86
2018-06-15T09:22:32.214Z,101133.53
2018-06-15T09:24:59.389Z,101130.20
2018-06-15T09:27:26.391Z,101123.98
2018-06-15T09:29:53.754Z,101134.90
2018-06-15T09:32:20.786Z,101129.93
2018-06-15T09:34:47.809Z,101131.42
2018-06-15T09:37:14.910Z,101131.84
2018-06-15T09:39:41.953Z,101131.20
2018-06-15T09:42:09.586Z,101135.17
2018-06-15T09:44:36.709Z,101135.63
2018-06-15T09:47:03.802Z,101135.89
2018-06-15T09:49:30.811Z,101134.68
2018-06-15T09:51:57.969Z,101137.73
2018-06-15T09:54:25.005Z,101125.66
2018-06-15T09:56:52.021Z,101139.74
2018-06-15T09:59:19.994Z,101139.04
2018-06-15T10:01:47.097Z,101134.69
2018-06-15T10:04:14.110Z,101140.33
2018-06-15T10:06:41.106Z,101135.10
2018-06-15T10:09:08.148Z,101118.55
2018-06-15T10:11:35.221Z,101135.53
2018-06-15T10:14:03.599Z,101131.65
2018-06-15T10:16:31.408Z,101126.11
2018-06-15T10:18:59.513Z,101137.70
2018-06-15T10:21:27.743Z,101136.70
2018-06-15T10:23:56.081Z,101135.88
2018-06-15T10:26:23.953Z,101137.69
2018-06-15T10:28:52.071Z,101135.05
2018-06-15T10:31:20.321Z,101137.44
2018-06-15T10:33:48.764Z,101139.09
2018-06-15T10:36:16.942Z,101135.21
2018-06-15T10:38:45.100Z,101134.70
2018-06-15T10:41:13.573Z,101132.88
2018-06-15T10:43:40.677Z,101131.27
2018-06-15T10:46:07.885Z,101134.45
2018-06-15T10:48:34.906Z,101139.00
2018-06-15T10:51:02.050Z,101128.01
2018-06-15T10:53:29.054Z,101138.69
2018-06-15T10:55:56.357Z,101128.22
2018-06-15T10:58:23.356Z,101129.55
2018-06-15T11:00:50.384Z,101126.77
2018-06-15T11:03:17.509Z,101125.52
2018-06-15T11:05:44.547Z,101132.11
2018-06-15T11:08:11.718Z,101125.33
2018-06-15T11:10:38.756Z,101130.77
2018-06-15T11:13:05.768Z,101118.59
2018-06-15T11:15:32.853Z,101116.45
2018-06-15T11:17:59.867Z,101113.91
2018-06-15T11:20:26.944Z,101110.27
2018-06-15T11:22:54.186Z,101110.91
2018-06-15T11:25:22.492Z,101119.23
2018-06-15T11:27:49.528Z,101108.37
2018-06-15T11:30:16.758Z,101123.91
2018-06-15T11:32:43.757Z,101113.08
2018-06-15T11:35:10.822Z,101116.86
2018-06-15T11:37:37.853Z,101103.61
2018-06-15T11:40:04.881Z,101102.34
2018-06-15T11:42:31.882Z,101106.23
2018-06-15T11:44:59.164Z,101104.14
2018-06-15T11:47:26.185Z,101110.95
2018-06-15T11:49:53.245Z,101106.62
2018-06-15T11:52:20.420Z,101103.17
2018-06-15T11:54:47.449Z,101106.38
2018-06-15T11:57:14.489Z,101107.36
2018-06-15T11:59:41.842Z,101103.83
2018-06-15T12:02:08.899Z,101101.78
2018-06-15T12:04:35.906Z,101093.33
2018-06-15T12:07:02.953Z,101100.95
2018-06-15T12:09:29.997Z,101096.73
2018-06-15T12:11:57.013Z,101098.80
2018-06-15T12:14:24.302Z,101094.39
2018-06-15T12:16:51.837Z,101096.62
2018-06-15T12:19:19.254Z,101102.80
2018-06-15T12:21:46.934Z,101094.49
2018-06-15T12:24:14.652Z,101100.41
2018-06-15T12:26:41.759Z,101104.02
2018-06-15T12:29:08.777Z,101101.98
2018-06-15T12:31:35.897Z,101103.72
2018-06-15T12:34:03.001Z,101108.40
2018-06-15T12:36:30.099Z,101104.20
2018-06-15T12:38:57.324Z,101104.11
2018-06-15T12:41:24.413Z,101094.87
2018-06-15T12:43:51.497Z,101104.94
2018-06-15T12:46:18.601Z,101099.80
2018-06-15T12:48:45.599Z,101111.13
2018-06-15T12:51:12.641Z,101107.32
2018-06-15T12:53:39.620Z,101107.48
2018-06-15T12:56:06.651Z,101104.46
2018-06-15T12:58:33.661Z,101110.00
2018-06-15T13:01:00.781Z,101103.03
2018-06-15T13:03:27.896Z,101101.13
2018-06-15T13:05:55.029Z,101105.30
2018-06-15T13:08:22.033Z,101112.75
2018-06-15T13:10:49.105Z,101111.25
2018-06-15T13:13:16.242Z,101106.30
2018-06-15T13:15:43.313Z,101098.79
2018-06-15T13:18:10.339Z,101096.39
2018-06-15T13:20:37.495Z,101105.19
2018-06-15T13:23:04.809Z,101100.75
2018-06-15T13:25:32.882Z,101103.33
2018-06-15T13:27:59.918Z,101106.34
2018-06-15T13:30:27.026Z,101106.45
2018-06-15T13:32:54.453Z,101100.95
2018-06-15T13:35:21.684Z,101104.44
2018-06-15T13:37:48.807Z,101100.42
2018-06-15T13:40:15.929Z,101102.84
2018-06-15T13:42:44.504Z,101102.09
2018-06-15T13:45:11.795Z,101099.52
2018-06-15T13:47:38.793Z,101099.66
2018-06-15T13:50:06.196Z,101099.05
2018-06-15T13:52:33.213Z,101093.73
2018-06-15T13:55:00.241Z,101102.55
2018-06-15T13:57:27.360Z,101099.84
2018-06-15T13:59:54.833Z,101093.66
2018-06-15T14:02:22.374Z,101099.84
2018-06-15T14:04:49.573Z,101100.48
2018-06-15T14:07:16.654Z,101093.23
2018-06-15T14:09:43.678Z,101093.95
2018-06-15T14:12:10.870Z,101094.33
2018-06-15T14:14:45.470Z,101103.14
2018-06-15T14:17:12.579Z,101098.13
2018-06-15T14:19:39.594Z,101100.08
2018-06-15T14:22:06.651Z,101101.52
2018-06-15T14:24:34.117Z,101103.05
2018-06-15T14:27:01.156Z,101092.38
2018-06-15T14:29:28.313Z,101097.61
2018-06-15T14:31:55.414Z,101101.82
2018-06-15T14:34:22.485Z,101096.09
2018-06-15T14:36:51.369Z,101100.94
2018-06-15T14:39:18.453Z,101096.41
2018-06-15T14:41:46.085Z,101100.84
2018-06-15T14:44:13.081Z,101098.98
2018-06-15T14:46:40.173Z,101101.77
2018-06-15T14:49:07.194Z,101101.72
2018-06-15T14:51:34.201Z,101105.25
2018-06-15T14:54:01.274Z,101103.64
2018-06-15T14:56:28.444Z,101106.73
2018-06-15T14:58:55.480Z,101106.19
2018-06-15T15:01:22.659Z,101097.31
2018-06-15T15:03:49.738Z,101102.77
2018-06-15T15:06:16.748Z,101103.73
2018-06-15T15:08:43.992Z,101101.75
2018-06-15T15:11:11.051Z,101101.21
2018-06-15T15:13:38.158Z,101103.75
2018-06-15T15:16:05.189Z,101098.06
2018-06-15T15:18:32.208Z,101099.61
2018-06-15T15:21:00.271Z,101095.91
2018-06-15T15:23:27.318Z,101099.88
2018-06-15T15:25:54.321Z,101103.31
2018-06-15T15:28:21.327Z,101101.69
2018-06-15T15:30:48.350Z,101097.91
2018-06-15T15:33:15.362Z,101101.59
2018-06-15T15:35:42.532Z,101099.41
2018-06-15T15:38:09.567Z,101098.42
2018-06-15T15:40:36.569Z,101093.36
2018-06-15T15:43:03.669Z,101092.27
2018-06-15T15:45:30.665Z,101094.13
2018-06-15T15:47:57.769Z,101088.84
2018-06-15T15:50:25.390Z,101090.92
2018-06-15T15:52:52.381Z,101087.25
2018-06-15T15:55:19.401Z,101086.94
2018-06-15T15:57:46.487Z,101091.45
2018-06-15T16:00:13.469Z,101085.85
2018-06-15T16:02:40.599Z,101089.50
2018-06-15T16:05:07.654Z,101099.87
2018-06-15T16:07:35.070Z,101096.69
2018-06-15T16:10:02.162Z,101095.98
2018-06-15T16:12:29.202Z,101095.78
2018-06-15T16:14:56.222Z,101089.42
2018-06-15T16:17:23.270Z,101090.86
2018-06-15T16:19:50.469Z,101087.05
2018-06-15T16:22:17.553Z,101078.36
2018-06-15T16:24:44.892Z,101076.38
2018-06-15T16:27:12.029Z,101078.23
2018-06-15T16:29:39.214Z,101080.23
2018-06-15T16:32:06.306Z,101081.69
2018-06-15T16:34:33.403Z,101069.14
2018-06-15T16:37:00.577Z,101077.94
2018-06-15T16:39:27.615Z,101079.32
2018-06-15T16:41:54.694Z,101077.30
2018-06-15T16:44:21.718Z,101074.46
2018-06-15T16:46:49.021Z,101068.59
2018-06-15T16:49:16.027Z,101071.83
2018-06-15T16:51:43.022Z,101070.61
2018-06-15T16:54:10.070Z,101066.77
2018-06-15T16:56:37.157Z,101061.98
2018-06-15T16:59:04.169Z,101064.87
2018-06-15T17:01:31.413Z,101064.02
2018-06-15T17:03:58.426Z,101062.30
2018-06-15T17:06:25.514Z,101066.78
2018-06-15T17:08:52.825Z,101070.61
2018-06-15T17:11:19.836Z,101066.78
2018-06-15T17:13:46.837Z,101062.88
2018-06-15T17:16:13.976Z,101063.80
2018-06-15T17:18:40.905Z,101062.69
2018-06-15T17:21:07.917Z,101061.94
2018-06-15T17:23:35.105Z,101065.48
2018-06-15T17:26:02.213Z,101061.23
2018-06-15T17:28:29.230Z,101061.50
2018-06-15T17:30:56.277Z,101066.40
2018-06-15T17:33:23.290Z,101064.63
2018-06-15T17:35:50.293Z,101066.69
2018-06-15T17:38:17.484Z,101062.30
2018-06-15T17:40:44.498Z,101068.05
2018-06-15T17:43:11.501Z,101072.09
2018-06-15T17:45:38.533Z,101070.95
2018-06-15T17:48:05.603Z,101070.48
2018-06-15T17:50:32.674Z,101069.80
2018-06-15T17:52:59.797Z,101067.17
2018-06-15T17:55:26.811Z,101069.06
2018-06-15T17:57:53.877Z,101063.84
2018-06-15T18:00:20.977Z,101070.09
2018-06-15T18:02:48.006Z,101065.40
2018-06-15T18:05:15.033Z,101064.44
2018-06-15T18:07:45.665Z,101069.67
2018-06-15T18:10:12.671Z,101065.11
2018-06-15T18:12:39.676Z,101065.55
2018-06-15T18:15:06.730Z,101067.25
2018-06-15T18:17:34.052Z,101063.95
2018-06-15T18:20:01.029Z,101070.30
2018-06-15T18:22:28.029Z,101065.40
2018-06-15T18:24:55.146Z,101069.62
2018-06-15T18:27:22.156Z,101072.03
2018-06-15T18:29:49.182Z,101072.03
2018-06-15T18:32:16.288Z,101069.39
2018-06-15T18:34:43.316Z,101068.90
2018-06-15T18:37:10.420Z,101064.34
2018-06-15T18:39:37.469Z,101062.54
2018-06-15T18:42:04.646Z,101062.66
2018-06-15T18:44:31.652Z,101066.37
2018-06-15T18:46:58.657Z,101065.53
2018-06-15T18:49:25.705Z,101070.20
2018-06-15T18:51:52.798Z,101070.65
2018-06-15T18:54:19.945Z,101073.17
2018-06-15T18:56:47.058Z,101068.91
2018-06-15T18:59:14.421Z,101076.48
2018-06-15T19:01:41.597Z,101076.20
2018-06-15T19:04:08.605Z,101072.40
2018-06-15T19:06:35.707Z,101076.89
2018-06-15T19:09:03.906Z,101077.46
2018-06-15T19:11:30.911Z,101074.30
2018-06-15T19:13:58.046Z,101074.95
2018-06-15T19:16:25.082Z,101078.39
2018-06-15T19:18:52.174Z,101077.02
2018-06-15T19:21:19.241Z,101075.86
2018-06-15T19:23:46.434Z,101081.44
2018-06-15T19:26:13.442Z,101080.33
2018-06-15T19:28:40.538Z,101081.92
2018-06-15T19:31:07.775Z,101076.52
2018-06-15T19:33:34.850Z,101079.26
2018-06-15T19:36:01.920Z,101081.61
2018-06-15T19:38:29.026Z,101075.24
2018-06-15T19:40:56.136Z,101082.24
2018-06-15T19:43:23.153Z,101076.59
2018-06-15T19:45:50.274Z,101076.91
2018-06-15T19:48:17.371Z,101079.93
2018-06-15T19:50:44.442Z,101090.75
2018-06-15T19:53:11.541Z,101094.46
2018-06-15T19:55:38.574Z,101090.23
2018-06-15T19:58:05.689Z,101088.02
2018-06-15T20:00:32.793Z,101096.95
2018-06-15T20:03:00.001Z,101094.30
2018-06-15T20:05:27.088Z,101090.34
2018-06-15T20:07:54.279Z,101099.33
2018-06-15T20:10:21.393Z,101099.67
2018-06-15T20:12:48.484Z,101092.83
2018-06-15T20:15:15.572Z,101099.79
2018-06-15T20:17:42.616Z,101096.34
2018-06-15T20:20:09.708Z,101101.63
2018-06-15T20:22:36.902Z,101097.66
2018-06-15T20:25:03.954Z,101096.02
2018-06-15T20:27:31.045Z,101094.31
2018-06-15T20:29:58.072Z,101092.93
2018-06-15T20:32:25.177Z,101085.75
2018-06-15T20:34:52.176Z,101090.50
2018-06-15T20:37:19.403Z,101086.44
2018-06-15T20:39:46.410Z,101085.34
2018-06-15T20:42:13.617Z,101082.77
2018-06-15T20:44:40.650Z,101086.01
2018-06-15T20:47:07.683Z,101088.22
2018-06-15T20:49:34.681Z,101089.70
2018-06-15T20:52:08.733Z,101085.89
2018-06-15T20:54:35.754Z,101084.75
2018-06-15T20:57:02.776Z,101087.17
2018-06-15T20:59:29.873Z,101081.47
2018-06-15T21:01:56.965Z,101077.26
2018-06-15T21:04:23.982Z,101073.61
2018-06-15T21:06:51.040Z,101079.77
2018-06-15T21:09:18.138Z,101071.00
2018-06-15T21:11:45.461Z,101076.52
2018-06-15T21:14:12.561Z,101066.09
2018-06-15T21:16:39.593Z,101059.61
2018-06-15T21:19:06.773Z,101056.50
2018-06-15T21:21:33.838Z,101059.70
2018-06-15T21:24:00.892Z,101064.33
2018-06-15T21:26:27.897Z,101068.34
2018-06-15T21:28:55.201Z,101068.47
2018-06-15T21:31:22.284Z,101072.25
2018-06-15T21:33:49.329Z,101065.64
2018-06-15T21:36:16.328Z,101065.92
2018-06-15T21:38:43.325Z,101071.25
2018-06-15T21:41:10.693Z,101064.98
2018-06-15T21:43:37.780Z,101070.03
2018-06-15T21:46:04.830Z,100995.23
2018-06-15T21:48:31.860Z,101073.11
2018-06-15T21:50:58.958Z,101064.37
2018-06-15T21:53:26.091Z,101060.90
2018-06-15T21:55:53.173Z,101057.34
2018-06-15T21:58:20.341Z,101056.77
2018-06-15T22:00:47.561Z,101059.48
2018-06-15T22:03:14.604Z,101055.88
2018-06-15T22:05:41.601Z,101053.97
2018-06-15T22:08:08.789Z,101060.42
2018-06-15T22:10:35.806Z,101055.95
2018-06-15T22:13:02.890Z,101054.20
2018-06-15T22:15:29.917Z,101051.25
2018-06-15T22:17:56.941Z,101044.36
2018-06-15T22:20:24.059Z,101044.41
2018-06-15T22:22:51.606Z,101049.71
2018-06-15T22:25:18.694Z,101048.08
2018-06-15T22:27:45.713Z,101047.58
2018-06-15T22:30:12.729Z,101045.67
2018-06-15T22:32:39.743Z,101040.17
2018-06-15T22:35:06.855Z,101047.20
2018-06-15T22:37:33.869Z,101049.16
2018-06-15T22:40:00.966Z,101046.48
2018-06-15T22:42:28.021Z,101047.70
2018-06-15T22:44:55.030Z,101057.45
2018-06-15T22:47:22.125Z,101052.67
2018-06-15T22:49:49.224Z,101053.86
2018-06-15T22:52:16.329Z,101057.28
2018-06-15T22:54:43.330Z,101054.34
2018-06-15T22:57:10.332Z,101056.33
2018-06-15T22:59:37.457Z,101050.98
2018-06-15T23:02:04.502Z,101054.88
2018-06-15T23:04:31.506Z,101056.92
2018-06-15T23:06:58.541Z,101051.45
2018-06-15T23:09:25.692Z,101044.69
2018-06-15T23:11:52.796Z,101050.59
2018-06-15T23:14:19.820Z,101054.08
2018-06-15T23:16:46.819Z,101051.17
2018-06-15T23:19:13.838Z,101058.59
2018-06-15T23:21:40.852Z,101058.92
2018-06-15T23:24:07.981Z,101054.78
2018-06-15T23:26:35.076Z,101063.14
2018-06-15T23:29:02.172Z,101060.99
2018-06-15T23:31:29.214Z,101055.89
2018-06-15T23:33:56.220Z,101056.06
2018-06-15T23:36:23.330Z,101054.34
2018-06-15T23:38:50.590Z,101049.19
2018-06-15T23:41:17.613Z,101052.12
2018-06-15T23:43:44.634Z,101046.78
2018-06-15T23:46:12.043Z,101047.17
2018-06-15T23:48:39.175Z,101043.19
2018-06-15T23:51:06.186Z,101044.69
2018-06-15T23:53:33.394Z,101044.78
2018-06-15T23:56:00.433Z,101043.20
2018-06-15T23:58:27.566Z,101047.88
